Time;durP1;ratioP1;P1;durP2;ratioP2;P2;SDS_P1;SDS_P2;PMS_P1;PMS_P2;Temp;Humidity;BMP_temperature;BMP_pressure;BME280_temperature;BME280_humidity;BME280_pressure;Samples;Min_cycle;Max_cycle;Signal;HPM_P1;HPM_P2
2021/03/31 00:00:39;;;;;;;1.13;0.47;;;11.40;99.90;;;;;;5010532;28;20206;-81
2021/03/31 00:03:17;;;;;;;0.20;0.20;;;11.40;99.90;;;;;;4988665;28;20201;-81
2021/03/31 00:05:43;;;;;;;0.10;0.10;;;11.40;99.90;;;;;;5012128;28;20211;-80
2021/03/31 00:08:09;;;;;;;0.20;0.20;;;11.40;99.90;;;;;;5011736;28;20333;-80
2021/03/31 00:10:42;;;;;;;0.40;0.40;;;11.40;99.90;;;;;;5012413;28;20206;-80
2021/03/31 00:13:08;;;;;;;0.30;0.30;;;11.40;99.90;;;;;;5010231;28;20193;-80
2021/03/31 00:15:34;;;;;;;0.17;0.13;;;11.40;99.90;;;;;;5011392;28;20691;-81
2021/03/31 00:18:00;;;;;;;0.37;0.37;;;11.40;99.90;;;;;;4993116;28;20176;-81
2021/03/31 00:20:25;;;;;;;0.20;0.20;;;11.40;99.90;;;;;;4993815;28;20205;-81
2021/03/31 00:22:51;;;;;;;0.10;0.10;;;11.50;99.90;;;;;;4993656;28;20188;-81
2021/03/31 00:25:17;;;;;;;0.30;0.30;;;11.50;99.90;;;;;;5008855;28;20255;-80
2021/03/31 00:27:43;;;;;;;0.47;0.40;;;11.50;99.90;;;;;;4993597;28;20298;-78
2021/03/31 00:30:12;;;;;;;0.27;0.27;;;11.60;99.90;;;;;;4992526;28;20207;-80
2021/03/31 00:32:38;;;;;;;0.50;0.30;;;11.60;99.90;;;;;;4992421;28;20226;-81
2021/03/31 00:35:06;;;;;;;0.10;0.10;;;11.50;99.90;;;;;;5009806;28;20183;-80
2021/03/31 00:37:32;;;;;;;0.73;0.40;;;11.60;99.90;;;;;;5010999;28;20219;-80
2021/03/31 00:39:57;;;;;;;0.10;0.10;;;11.50;99.90;;;;;;4992682;28;20665;-80
2021/03/31 00:42:23;;;;;;;0.23;0.23;;;11.50;99.90;;;;;;5015811;28;20209;-81
2021/03/31 00:44:48;;;;;;;0.47;0.47;;;11.50;99.90;;;;;;4992983;28;20187;-81
2021/03/31 00:47:14;;;;;;;0.10;0.10;;;11.40;99.90;;;;;;5009121;28;20713;-80
2021/03/31 00:49:39;;;;;;;0.87;0.53;;;11.30;99.90;;;;;;5010295;28;20737;-80
2021/03/31 00:52:06;;;;;;;1.50;0.50;;;11.20;99.90;;;;;;4992606;28;20189;-81
2021/03/31 00:54:32;;;;;;;0.23;0.23;;;11.20;99.90;;;;;;4993074;28;20274;-80
2021/03/31 00:56:58;;;;;;;0.30;0.30;;;11.10;99.90;;;;;;4991900;28;20278;-80
2021/03/31 00:59:23;;;;;;;0.10;0.10;;;11.00;99.90;;;;;;5009311;28;20191;-81
2021/03/31 01:01:50;;;;;;;0.27;0.27;;;11.00;99.90;;;;;;5010087;28;20769;-80
2021/03/31 01:04:15;;;;;;;0.20;0.20;;;11.00;99.90;;;;;;4987297;28;20701;-81
2021/03/31 01:06:41;;;;;;;0.20;0.20;;;10.90;99.90;;;;;;5011090;28;20222;-81
2021/03/31 01:09:07;;;;;;;0.20;0.20;;;10.90;99.90;;;;;;4992370;28;20262;-80
2021/03/31 01:11:50;;;;;;;0.20;0.20;;;10.90;99.90;;;;;;5008671;28;20207;-79
2021/03/31 01:14:43;;;;;;;0.10;0.10;;;10.80;99.90;;;;;;4992307;28;20588;-81
2021/03/31 01:17:15;;;;;;;0.10;0.10;;;10.80;99.90;;;;;;4993539;28;20558;-80
2021/03/31 01:20:05;;;;;;;0.10;0.10;;;10.60;99.90;;;;;;4995911;28;20213;-81
2021/03/31 01:22:57;;;;;;;0.10;0.10;;;10.50;99.90;;;;;;4995987;28;20630;-79
2021/03/31 01:25:42;;;;;;;0.33;0.20;;;10.50;99.90;;;;;;4996305;28;20193;-80
2021/03/31 01:28:25;;;;;;;0.10;0.10;;;10.50;99.90;;;;;;4996659;28;20190;-80
2021/03/31 01:31:04;;;;;;;0.80;0.30;;;10.60;99.90;;;;;;5002204;28;20233;-81
2021/03/31 01:34:01;;;;;;;0.20;0.10;;;10.60;99.90;;;;;;5013182;28;20246;-79
2021/03/31 01:36:29;;;;;;;0.10;0.10;;;10.50;99.90;;;;;;4994491;28;20184;-81
2021/03/31 01:39:00;;;;;;;0.13;0.13;;;10.50;99.90;;;;;;5008685;28;20194;-79
2021/03/31 01:41:27;;;;;;;0.10;0.10;;;10.50;99.90;;;;;;5012528;28;20214;-80
2021/03/31 01:43:55;;;;;;;0.30;0.30;;;10.50;99.90;;;;;;5013318;28;20354;-81
2021/03/31 01:46:31;;;;;;;0.10;0.10;;;10.50;99.90;;;;;;4996726;28;20219;-80
2021/03/31 01:49:00;;;;;;;0.10;0.10;;;10.40;99.90;;;;;;4996389;28;20701;-80
2021/03/31 01:51:27;;;;;;;0.20;0.20;;;10.40;99.90;;;;;;5013195;28;20275;-80
2021/03/31 01:53:54;;;;;;;0.20;0.20;;;10.50;99.90;;;;;;4996071;28;20183;-80
2021/03/31 01:56:20;;;;;;;0.20;0.20;;;10.50;99.90;;;;;;5013225;28;20896;-81
2021/03/31 01:58:47;;;;;;;0.23;0.23;;;10.50;99.90;;;;;;5014073;28;20240;-81
2021/03/31 02:01:17;;;;;;;0.17;0.17;;;10.40;99.90;;;;;;5013316;28;20210;-79
2021/03/31 02:03:45;;;;;;;0.10;0.10;;;10.40;99.90;;;;;;4995434;28;20191;-80
2021/03/31 02:06:13;;;;;;;1.23;1.13;;;10.30;99.90;;;;;;5013711;28;20219;-80
2021/03/31 02:08:42;;;;;;;0.40;0.40;;;10.30;99.90;;;;;;5026848;28;20698;-80
2021/03/31 02:11:09;;;;;;;0.27;0.27;;;10.20;99.90;;;;;;4995366;28;20206;-81
2021/03/31 02:13:35;;;;;;;0.43;0.43;;;10.10;99.90;;;;;;5012983;28;20578;-80
2021/03/31 02:16:02;;;;;;;0.27;0.27;;;10.10;99.90;;;;;;4995629;28;20274;-80
2021/03/31 02:18:31;;;;;;;0.40;0.40;;;10.00;99.90;;;;;;5012933;28;20232;-81
2021/03/31 02:20:58;;;;;;;0.50;0.50;;;10.00;99.90;;;;;;5012614;28;20585;-80
2021/03/31 02:23:26;;;;;;;0.50;0.50;;;9.90;99.90;;;;;;4995514;28;20194;-80
2021/03/31 02:25:51;;;;;;;0.20;0.20;;;9.80;99.90;;;;;;5013178;28;20207;-78
2021/03/31 02:28:17;;;;;;;0.50;0.50;;;9.80;99.90;;;;;;4993929;28;20261;-80
2021/03/31 02:30:43;;;;;;;0.30;0.30;;;9.80;99.90;;;;;;4995457;28;20293;-80
2021/03/31 02:33:11;;;;;;;1.43;1.40;;;9.70;99.90;;;;;;4994722;28;20201;-80
2021/03/31 02:35:39;;;;;;;3.50;0.30;;;9.70;99.90;;;;;;5011207;28;20583;-79
2021/03/31 02:38:07;;;;;;;0.30;0.30;;;9.70;99.90;;;;;;4994525;28;20696;-80
2021/03/31 02:40:32;;;;;;;0.10;0.10;;;9.70;99.90;;;;;;5013358;28;20238;-80
2021/03/31 02:43:00;;;;;;;0.60;0.53;;;9.60;99.90;;;;;;4994986;28;20679;-80
2021/03/31 02:45:27;;;;;;;0.20;0.20;;;9.60;99.90;;;;;;5012707;28;20190;-80
2021/03/31 02:47:54;;;;;;;0.30;0.30;;;9.60;99.90;;;;;;4995051;28;20197;-80
2021/03/31 02:50:23;;;;;;;0.57;0.20;;;9.60;99.90;;;;;;4994099;28;20213;-80
2021/03/31 02:52:50;;;;;;;1.27;0.37;;;9.50;99.90;;;;;;5012052;28;20221;-80
2021/03/31 02:55:18;;;;;;;0.20;0.20;;;9.50;99.90;;;;;;5011713;28;20210;-80
2021/03/31 02:57:44;;;;;;;0.60;0.60;;;9.50;99.90;;;;;;4993313;28;20183;-80
2021/03/31 03:00:11;;;;;;;0.30;0.30;;;9.50;99.90;;;;;;4993358;28;20242;-79
2021/03/31 03:02:43;;;;;;;0.10;0.10;;;9.50;99.90;;;;;;5012162;28;20626;-80
2021/03/31 03:05:12;;;;;;;0.60;0.20;;;9.40;99.90;;;;;;4993590;28;20190;-80
2021/03/31 03:07:38;;;;;;;0.20;0.20;;;9.40;99.90;;;;;;5010379;28;20218;-80
2021/03/31 03:10:06;;;;;;;0.20;0.20;;;9.40;99.90;;;;;;5006668;28;20288;-80
2021/03/31 03:12:37;;;;;;;0.10;0.10;;;9.40;99.90;;;;;;4993223;28;20227;-79
2021/03/31 03:15:03;;;;;;;0.63;0.47;;;9.40;99.90;;;;;;4994904;28;20187;-81
2021/03/31 03:17:29;;;;;;;0.47;0.30;;;9.50;99.90;;;;;;5010717;28;20195;-80
2021/03/31 03:19:55;;;;;;;0.70;0.50;;;9.50;99.90;;;;;;5011387;28;20269;-81
2021/03/31 03:22:21;;;;;;;0.57;0.20;;;9.50;99.90;;;;;;4993898;28;20195;-81
2021/03/31 03:24:47;;;;;;;0.10;0.10;;;9.50;99.90;;;;;;5010808;28;20666;-80
2021/03/31 03:27:15;;;;;;;0.10;0.10;;;9.60;99.90;;;;;;5011044;28;20297;-80
2021/03/31 03:29:46;;;;;;;0.10;0.10;;;9.50;99.90;;;;;;4993153;28;20701;-81
2021/03/31 03:32:13;;;;;;;0.10;0.10;;;9.50;99.90;;;;;;4993794;28;20201;-80
2021/03/31 03:34:40;;;;;;;0.30;0.30;;;9.50;99.90;;;;;;5004932;28;20229;-81
2021/03/31 03:37:06;;;;;;;0.37;0.37;;;9.40;99.90;;;;;;4992946;28;20191;-80
2021/03/31 03:39:31;;;;;;;0.20;0.20;;;9.40;99.90;;;;;;4993215;28;20213;-80
2021/03/31 03:41:57;;;;;;;0.20;0.20;;;9.40;99.90;;;;;;5011608;28;20609;-81
2021/03/31 03:44:23;;;;;;;0.13;0.13;;;9.40;99.90;;;;;;4992986;28;20187;-80
2021/03/31 03:46:52;;;;;;;0.10;0.10;;;9.40;99.90;;;;;;5010881;28;20290;-80
2021/03/31 03:49:18;;;;;;;0.30;0.30;;;9.30;99.90;;;;;;5011139;28;20266;-80
2021/03/31 03:51:45;;;;;;;0.50;0.50;;;9.30;99.90;;;;;;5027289;28;20236;-80
2021/03/31 03:54:11;;;;;;;0.30;0.30;;;9.30;99.90;;;;;;4989351;28;20214;-81
2021/03/31 03:56:37;;;;;;;0.20;0.20;;;9.30;99.90;;;;;;5011594;28;20195;-80
2021/03/31 03:59:20;;;;;;;0.10;0.10;;;9.20;99.90;;;;;;4993245;28;20183;-80
2021/03/31 04:01:46;;;;;;;0.30;0.30;;;9.10;99.90;;;;;;4983924;28;20191;-80
2021/03/31 04:04:12;;;;;;;0.10;0.10;;;9.10;99.90;;;;;;4994225;28;20202;-80
2021/03/31 04:06:37;;;;;;;0.20;0.20;;;9.10;99.90;;;;;;5010670;28;20211;-80
2021/03/31 04:09:04;;;;;;;0.10;0.10;;;9.00;99.90;;;;;;5010480;28;20216;-81
2021/03/31 04:11:30;;;;;;;0.07;0.07;;;9.00;99.90;;;;;;4985969;28;20292;-80
2021/03/31 04:14:00;;;;;;;0.40;0.40;;;9.00;99.90;;;;;;4993309;28;20187;-80
2021/03/31 04:16:29;;;;;;;0.10;0.10;;;9.00;99.90;;;;;;4992501;28;20203;-81
2021/03/31 04:18:55;;;;;;;0.83;0.40;;;9.00;99.90;;;;;;4993480;28;20666;-80
2021/03/31 04:21:21;;;;;;;1.13;0.40;;;9.00;99.90;;;;;;5025255;28;20209;-80
2021/03/31 04:23:47;;;;;;;0.10;0.10;;;9.00;99.90;;;;;;5011128;28;20193;-80
2021/03/31 04:26:13;;;;;;;0.10;0.10;;;9.00;99.90;;;;;;4991668;28;20297;-81
2021/03/31 04:28:39;;;;;;;0.10;0.10;;;8.90;99.90;;;;;;4992541;28;20193;-79
2021/03/31 04:31:06;;;;;;;0.20;0.20;;;8.90;99.90;;;;;;4993317;28;20257;-81
2021/03/31 04:33:32;;;;;;;0.10;0.10;;;8.90;99.90;;;;;;4993454;28;20194;-81
2021/03/31 04:35:58;;;;;;;0.13;0.13;;;8.80;99.90;;;;;;5010524;28;20560;-80
2021/03/31 04:38:23;;;;;;;0.17;0.17;;;8.80;99.90;;;;;;4992504;28;20194;-81
2021/03/31 04:40:56;;;;;;;0.10;0.10;;;8.70;99.90;;;;;;5009834;28;20211;-80
2021/03/31 04:43:24;;;;;;;0.10;0.10;;;8.80;99.90;;;;;;5010600;28;20189;-80
2021/03/31 04:45:50;;;;;;;0.20;0.20;;;8.80;99.90;;;;;;5010027;28;20268;-80
2021/03/31 04:48:16;;;;;;;0.30;0.30;;;8.70;99.90;;;;;;5009688;28;20197;-81
2021/03/31 04:50:41;;;;;;;5.30;0.40;;;8.80;99.90;;;;;;4992787;28;20263;-80
2021/03/31 04:53:07;;;;;;;0.10;0.10;;;8.70;99.90;;;;;;4992008;28;20281;-79
2021/03/31 04:55:33;;;;;;;0.17;0.17;;;8.70;99.90;;;;;;4992373;28;20186;-79
2021/03/31 04:57:59;;;;;;;0.50;0.50;;;8.70;99.90;;;;;;5010156;28;20194;-80
2021/03/31 05:00:25;;;;;;;0.20;0.20;;;8.60;99.90;;;;;;5009358;28;20613;-79
2021/03/31 05:02:50;;;;;;;0.10;0.10;;;8.70;99.90;;;;;;5009607;28;20190;-80
2021/03/31 05:05:16;;;;;;;0.33;0.30;;;8.80;99.90;;;;;;5018352;28;20183;-80
2021/03/31 05:07:42;;;;;;;0.53;0.47;;;8.80;99.90;;;;;;5009700;28;20241;-80
2021/03/31 05:10:08;;;;;;;1.03;0.67;;;8.80;99.90;;;;;;4992270;28;20207;-82
2021/03/31 05:12:33;;;;;;;0.13;0.13;;;8.70;99.90;;;;;;4991020;28;20187;-84
2021/03/31 05:14:59;;;;;;;0.33;0.33;;;8.60;99.90;;;;;;4993191;28;20172;-83
2021/03/31 05:17:24;;;;;;;0.40;0.40;;;8.60;99.90;;;;;;4993331;28;20221;-83
2021/03/31 05:19:50;;;;;;;0.40;0.40;;;8.60;99.90;;;;;;4991898;28;20218;-84
2021/03/31 05:22:16;;;;;;;0.50;0.50;;;8.50;99.90;;;;;;5009935;28;20711;-80
2021/03/31 05:24:41;;;;;;;0.20;0.20;;;8.60;99.90;;;;;;4992736;28;20194;-80
2021/03/31 05:27:07;;;;;;;0.20;0.20;;;8.50;99.90;;;;;;4990736;28;20221;-79
2021/03/31 05:29:33;;;;;;;0.33;0.33;;;8.50;99.90;;;;;;5009992;28;20286;-79
2021/03/31 05:31:59;;;;;;;0.20;0.20;;;8.40;99.90;;;;;;4993382;28;20183;-80
2021/03/31 05:34:25;;;;;;;0.30;0.30;;;8.40;99.90;;;;;;5009794;28;20269;-80
2021/03/31 05:36:51;;;;;;;0.60;0.30;;;8.30;99.90;;;;;;5009778;28;20196;-79
2021/03/31 05:39:17;;;;;;;0.40;0.40;;;8.30;99.90;;;;;;4989931;28;20554;-80
2021/03/31 05:41:43;;;;;;;0.73;0.60;;;8.40;99.90;;;;;;5009574;28;20192;-80
2021/03/31 05:44:09;;;;;;;0.10;0.10;;;8.40;99.90;;;;;;4988150;28;20193;-83
2021/03/31 05:46:39;;;;;;;0.20;0.20;;;8.40;99.90;;;;;;5002301;28;20299;-83
2021/03/31 05:49:05;;;;;;;0.83;0.60;;;8.50;99.90;;;;;;4991944;28;20187;-84
2021/03/31 05:51:32;;;;;;;0.30;0.30;;;8.50;99.90;;;;;;4991682;28;20209;-84
2021/03/31 05:53:57;;;;;;;0.30;0.30;;;8.60;99.90;;;;;;4991683;28;20208;-83
2021/03/31 05:56:23;;;;;;;0.67;0.33;;;8.60;99.90;;;;;;5004326;28;20665;-83
2021/03/31 05:58:50;;;;;;;0.20;0.20;;;8.60;99.90;;;;;;4991467;28;20574;-82
2021/03/31 06:01:17;;;;;;;0.30;0.30;;;8.70;99.90;;;;;;4991880;28;20207;-81
2021/03/31 06:03:44;;;;;;;0.67;0.30;;;8.70;99.90;;;;;;4994773;28;20187;-82
2021/03/31 06:06:10;;;;;;;0.20;0.20;;;8.80;99.90;;;;;;4994853;28;20209;-83
2021/03/31 06:08:36;;;;;;;0.57;0.40;;;8.80;99.90;;;;;;5013132;28;20282;-80
2021/03/31 06:11:03;;;;;;;0.40;0.40;;;8.80;99.90;;;;;;5013171;28;20206;-80
2021/03/31 06:13:54;;;;;;;0.47;0.27;;;8.90;99.90;;;;;;5012817;28;20203;-80
2021/03/31 06:16:30;;;;;;;0.10;0.10;;;9.00;99.90;;;;;;4994953;28;20182;-81
2021/03/31 06:18:56;;;;;;;0.20;0.20;;;9.10;99.90;;;;;;4993638;28;20198;-80
2021/03/31 06:21:22;;;;;;;0.20;0.20;;;9.20;99.90;;;;;;4998707;28;20210;-79
2021/03/31 06:23:58;;;;;;;0.93;0.40;;;9.30;99.90;;;;;;5011997;28;20204;-83
2021/03/31 06:26:23;;;;;;;0.10;0.10;;;9.50;99.90;;;;;;4993564;28;20226;-84
2021/03/31 06:28:55;;;;;;;0.30;0.30;;;9.70;99.90;;;;;;4994385;28;20173;-84
2021/03/31 06:31:21;;;;;;;0.13;0.13;;;9.80;99.90;;;;;;5011137;28;20218;-84
2021/03/31 06:33:48;;;;;;;0.50;0.50;;;9.90;99.90;;;;;;5011949;28;20218;-84
2021/03/31 06:36:18;;;;;;;0.57;0.50;;;10.00;99.90;;;;;;4995074;28;20198;-82
2021/03/31 06:38:50;;;;;;;0.40;0.40;;;10.10;99.90;;;;;;4991956;28;20594;-81
2021/03/31 06:41:36;;;;;;;0.63;0.63;;;10.10;99.90;;;;;;4996018;28;20206;-83
2021/03/31 06:44:25;;;;;;;0.20;0.20;;;10.30;99.90;;;;;;5019626;28;20565;-83
2021/03/31 06:46:55;;;;;;;0.10;0.10;;;10.40;99.90;;;;;;4994296;28;20686;-85
2021/03/31 06:49:21;;;;;;;0.13;0.13;;;10.60;99.90;;;;;;4994753;28;20179;-84
2021/03/31 06:51:46;;;;;;;0.13;0.13;;;10.70;99.90;;;;;;5011812;28;20190;-82
2021/03/31 06:54:15;;;;;;;0.10;0.10;;;10.90;99.90;;;;;;4992080;28;20229;-83
2021/03/31 06:56:43;;;;;;;0.43;0.43;;;11.10;99.90;;;;;;4989870;28;20198;-83
2021/03/31 06:59:10;;;;;;;0.80;0.80;;;11.20;99.90;;;;;;4989246;28;20536;-82
2021/03/31 07:01:37;;;;;;;0.17;0.17;;;11.40;99.90;;;;;;5007627;28;20179;-84
2021/03/31 07:04:05;;;;;;;0.40;0.40;;;11.50;99.90;;;;;;4992448;28;20753;-81
2021/03/31 07:06:31;;;;;;;1.73;0.40;;;11.60;99.90;;;;;;5004512;28;20591;-80
2021/03/31 07:08:57;;;;;;;0.30;0.20;;;11.70;99.90;;;;;;4981076;28;20178;-81
2021/03/31 07:11:36;;;;;;;0.37;0.30;;;11.90;99.90;;;;;;5008669;28;20553;-81
2021/03/31 07:14:03;;;;;;;0.93;0.70;;;12.10;99.90;;;;;;5010133;28;20183;-84
2021/03/31 07:16:31;;;;;;;0.73;0.57;;;12.20;99.90;;;;;;5012946;28;20194;-85
2021/03/31 07:18:57;;;;;;;0.57;0.57;;;12.50;99.90;;;;;;5008921;28;20183;-84
2021/03/31 07:21:24;;;;;;;0.00;0.00;;;12.80;99.90;;;;;;4995400;28;20219;-84
2021/03/31 07:24:17;;;;;;;0.10;0.10;;;12.80;99.90;;;;;;4998512;28;20196;-84
2021/03/31 07:26:45;;;;;;;0.30;0.20;;;13.00;99.90;;;;;;5011239;28;20295;-87
2021/03/31 07:29:16;;;;;;;0.23;0.23;;;13.10;99.90;;;;;;5013127;28;20299;-86
2021/03/31 07:31:44;;;;;;;0.40;0.40;;;13.20;99.90;;;;;;5006943;28;20185;-84
2021/03/31 07:34:25;;;;;;;0.20;0.20;;;13.20;99.90;;;;;;5010868;28;20197;-84
2021/03/31 07:36:51;;;;;;;1.50;0.77;;;13.30;99.90;;;;;;5028255;28;20191;-83
2021/03/31 07:39:18;;;;;;;0.47;0.47;;;13.20;99.90;;;;;;5009876;28;20278;-84
2021/03/31 07:41:45;;;;;;;0.93;0.93;;;13.40;99.90;;;;;;5025626;28;20191;-83
2021/03/31 07:44:17;;;;;;;0.20;0.20;;;13.60;99.90;;;;;;5021950;28;20651;-84
2021/03/31 07:47:02;;;;;;;0.43;0.40;;;13.60;99.90;;;;;;4994774;28;20222;-83
2021/03/31 07:49:28;;;;;;;0.50;0.50;;;13.90;99.90;;;;;;5020126;28;20197;-84
2021/03/31 07:51:59;;;;;;;0.67;0.60;;;14.10;99.90;;;;;;5015185;28;20234;-85
2021/03/31 07:54:25;;;;;;;0.47;0.47;;;14.10;99.90;;;;;;5035417;28;20203;-83
2021/03/31 07:56:51;;;;;;;0.67;0.67;;;14.30;99.90;;;;;;5018667;28;20221;-84
2021/03/31 07:59:19;;;;;;;0.57;0.57;;;14.40;99.90;;;;;;4996721;28;20281;-84
2021/03/31 08:01:58;;;;;;;0.37;0.37;;;14.70;99.90;;;;;;5020567;28;20246;-84
2021/03/31 08:04:26;;;;;;;0.27;0.27;;;14.80;99.90;;;;;;5008895;28;20703;-86
2021/03/31 08:06:55;;;;;;;0.67;0.30;;;14.90;99.90;;;;;;4995746;28;20266;-85
2021/03/31 08:09:30;;;;;;;0.43;0.40;;;15.10;99.90;;;;;;5014195;28;20547;-84
2021/03/31 08:11:58;;;;;;;0.60;0.60;;;15.20;99.90;;;;;;4997958;28;20188;-83
2021/03/31 08:14:27;;;;;;;2.40;0.77;;;15.30;99.90;;;;;;4997496;28;20190;-84
2021/03/31 08:16:56;;;;;;;0.30;0.17;;;15.40;99.90;;;;;;5000012;28;20272;-84
2021/03/31 08:19:38;;;;;;;0.33;0.30;;;15.50;99.90;;;;;;5016954;28;20192;-85
2021/03/31 08:22:22;;;;;;;0.30;0.30;;;15.70;99.90;;;;;;5025082;28;20259;-84
2021/03/31 08:24:54;;;;;;;0.47;0.47;;;15.90;99.90;;;;;;5015160;28;20201;-86
2021/03/31 08:27:20;;;;;;;0.43;0.20;;;16.20;99.90;;;;;;5014106;28;20672;-83
2021/03/31 08:29:48;;;;;;;1.40;0.27;;;16.40;99.90;;;;;;5012290;28;20202;-84
2021/03/31 08:32:15;;;;;;;5.73;0.50;;;16.60;99.90;;;;;;5013565;28;20206;-82
2021/03/31 08:34:42;;;;;;;0.40;0.40;;;16.70;99.90;;;;;;5014564;28;20187;-83
2021/03/31 08:37:20;;;;;;;0.10;0.10;;;16.90;99.90;;;;;;4990586;28;20178;-84
2021/03/31 08:39:46;;;;;;;0.33;0.33;;;17.10;99.90;;;;;;5011485;28;20655;-84
2021/03/31 08:42:11;;;;;;;0.47;0.47;;;17.30;99.90;;;;;;5013620;28;20221;-84
2021/03/31 08:44:38;;;;;;;0.20;0.20;;;17.50;99.90;;;;;;5013659;28;20666;-84
2021/03/31 08:47:16;;;;;;;0.90;0.87;;;17.70;99.90;;;;;;5012378;28;20257;-84
2021/03/31 08:49:46;;;;;;;0.40;0.40;;;17.70;99.90;;;;;;5011917;28;20222;-83
2021/03/31 08:52:14;;;;;;;0.70;0.70;;;17.90;99.90;;;;;;5029639;28;20630;-84
2021/03/31 08:54:53;;;;;;;0.57;0.53;;;18.10;99.90;;;;;;5006573;28;20179;-84
2021/03/31 08:57:22;;;;;;;6.63;0.80;;;18.20;99.90;;;;;;5010865;28;20179;-83
2021/03/31 08:59:50;;;;;;;0.47;0.47;;;18.20;99.90;;;;;;4997668;28;20265;-86
2021/03/31 09:02:23;;;;;;;1.50;0.67;;;18.50;99.90;;;;;;4997253;28;20185;-86
2021/03/31 09:04:56;;;;;;;1.23;0.43;;;18.60;99.90;;;;;;4991296;28;20238;-82
2021/03/31 09:07:23;;;;;;;1.23;1.00;;;18.90;99.90;;;;;;5013431;28;20246;-84
2021/03/31 09:09:49;;;;;;;0.50;0.50;;;19.10;99.90;;;;;;5008176;28;20217;-84
2021/03/31 09:12:19;;;;;;;1.80;1.70;;;19.10;99.90;;;;;;5013565;28;21114;-84
2021/03/31 09:14:51;;;;;;;1.47;1.37;;;19.20;99.90;;;;;;4996657;28;20217;-83
2021/03/31 09:17:21;;;;;;;0.70;0.70;;;19.30;99.90;;;;;;5013757;28;20542;-84
2021/03/31 09:19:51;;;;;;;1.50;0.97;;;19.50;99.90;;;;;;5012799;28;20198;-84
2021/03/31 09:22:18;;;;;;;2.40;1.83;;;19.50;99.90;;;;;;5012627;28;20175;-84
2021/03/31 09:24:51;;;;;;;2.40;1.13;;;19.60;99.90;;;;;;5015998;28;20187;-84
2021/03/31 09:27:27;;;;;;;2.23;1.03;;;19.60;99.90;;;;;;4996217;28;20210;-84
2021/03/31 09:29:54;;;;;;;2.00;0.70;;;19.70;99.90;;;;;;5009671;28;20190;-85
2021/03/31 09:34:51;;;;;;;2.03;1.93;;;20.00;99.90;;;;;;5008912;28;20198;-84
2021/03/31 09:37:20;;;;;;;1.67;0.97;;;20.00;99.90;;;;;;4991857;28;20186;-84
2021/03/31 09:39:47;;;;;;;1.90;1.07;;;20.10;99.90;;;;;;4994376;28;20211;-84
2021/03/31 09:42:38;;;;;;;1.97;1.13;;;20.20;99.90;;;;;;5014670;28;20774;-85
2021/03/31 09:45:12;;;;;;;2.67;1.33;;;20.10;99.90;;;;;;4998349;28;20221;-85
2021/03/31 09:47:39;;;;;;;1.70;0.60;;;20.30;99.90;;;;;;4997469;28;20687;-84
2021/03/31 09:50:10;;;;;;;2.27;1.47;;;20.00;99.90;;;;;;5013111;28;20279;-84
2021/03/31 09:52:36;;;;;;;1.10;1.00;;;20.10;99.90;;;;;;5011512;28;20696;-84
2021/03/31 09:55:08;;;;;;;2.70;1.47;;;20.20;99.90;;;;;;4997482;28;20186;-84
2021/03/31 09:57:48;;;;;;;4.87;1.30;;;20.30;99.90;;;;;;5012963;28;23112;-84
2021/03/31 10:00:16;;;;;;;5.70;1.47;;;20.10;99.90;;;;;;4996897;28;20290;-85
2021/03/31 10:02:56;;;;;;;2.73;1.53;;;20.10;99.90;;;;;;5012501;28;20183;-84
2021/03/31 10:05:27;;;;;;;3.00;1.77;;;19.90;99.90;;;;;;5017190;28;20189;-84
2021/03/31 10:08:01;;;;;;;2.40;1.00;;;20.40;99.90;;;;;;5014909;28;20260;-85
2021/03/31 10:10:50;;;;;;;1.43;1.33;;;20.70;99.90;;;;;;5014793;28;20210;-85
2021/03/31 10:13:18;;;;;;;2.27;1.57;;;20.50;99.90;;;;;;5010288;28;20175;-84
2021/03/31 10:15:47;;;;;;;1.37;1.07;;;20.80;99.90;;;;;;5011007;28;20183;-85
2021/03/31 10:18:33;;;;;;;1.13;0.80;;;20.90;99.90;;;;;;5013917;28;20179;-84
2021/03/31 10:21:00;;;;;;;0.87;0.87;;;21.10;99.90;;;;;;5000288;28;20859;-84
2021/03/31 10:23:32;;;;;;;2.43;1.63;;;21.20;99.90;;;;;;5000820;28;21017;-85
2021/03/31 10:26:31;;;;;;;2.07;0.90;;;21.40;99.90;;;;;;5012111;28;20766;-86
2021/03/31 10:29:00;;;;;;;1.10;1.10;;;21.50;99.90;;;;;;4993837;28;20194;-84
2021/03/31 10:31:31;;;;;;;2.10;1.27;;;21.70;99.90;;;;;;4998791;28;20195;-85
2021/03/31 10:33:57;;;;;;;1.67;1.33;;;21.70;99.90;;;;;;5005704;28;20219;-86
2021/03/31 10:36:55;;;;;;;1.30;1.13;;;21.80;99.90;;;;;;5009842;28;20225;-85
2021/03/31 10:48:37;;;;;;;2.47;1.97;;;22.20;99.90;;;;;;5014030;28;20244;-84
2021/03/31 10:53:43;;;;;;;1.53;1.20;;;21.00;99.90;;;;;;5013213;28;20831;-84
2021/03/31 10:56:09;;;;;;;2.90;2.67;;;21.50;99.90;;;;;;4992790;28;20218;-85
2021/03/31 10:58:34;;;;;;;1.50;1.40;;;21.80;99.90;;;;;;5011155;28;20195;-87
2021/03/31 11:01:00;;;;;;;1.27;1.17;;;21.90;99.90;;;;;;5013882;28;20206;-84
2021/03/31 11:03:26;;;;;;;2.60;1.40;;;22.10;99.90;;;;;;4996589;28;20186;-84
2021/03/31 11:05:53;;;;;;;2.83;0.80;;;22.20;99.90;;;;;;5001001;28;20217;-85
2021/03/31 11:08:20;;;;;;;2.00;1.47;;;22.40;99.90;;;;;;5013448;28;20651;-85
2021/03/31 11:10:46;;;;;;;1.43;1.33;;;22.10;99.90;;;;;;5013085;28;20264;-86
2021/03/31 11:13:12;;;;;;;1.93;1.63;;;22.20;99.90;;;;;;5013200;28;20176;-84
2021/03/31 11:15:38;;;;;;;1.43;0.90;;;22.40;99.90;;;;;;5014132;28;20702;-85
2021/03/31 11:18:38;;;;;;;3.07;1.83;;;22.60;99.90;;;;;;5012943;28;20187;-85
2021/03/31 11:26:16;;;;;;;4.97;1.20;;;22.80;99.90;;;;;;5021548;28;20297;-84
2021/03/31 11:28:42;;;;;;;3.57;2.20;;;22.90;99.90;;;;;;4984127;28;20271;-85
2021/03/31 11:31:09;;;;;;;3.87;1.47;;;22.90;99.90;;;;;;5012792;28;20334;-86
2021/03/31 11:33:35;;;;;;;3.90;1.50;;;22.90;99.90;;;;;;5007069;28;20199;-84
2021/03/31 11:36:00;;;;;;;3.13;2.13;;;23.00;99.90;;;;;;5012537;28;20205;-86
2021/03/31 11:38:26;;;;;;;2.60;1.90;;;23.10;99.90;;;;;;5009297;28;20277;-86
2021/03/31 11:40:52;;;;;;;1.13;0.90;;;23.30;99.90;;;;;;5014751;28;20281;-85
2021/03/31 11:43:19;;;;;;;2.77;2.53;;;23.50;99.90;;;;;;4993708;28;20651;-86
2021/03/31 11:45:47;;;;;;;2.93;2.10;;;23.60;99.90;;;;;;4994932;28;22114;-85
2021/03/31 11:48:13;;;;;;;1.53;1.43;;;23.60;99.90;;;;;;5011777;28;20198;-85
2021/03/31 11:50:38;;;;;;;2.83;1.80;;;23.70;99.90;;;;;;5004964;28;20217;-86
2021/03/31 11:53:04;;;;;;;6.70;2.87;;;23.70;99.90;;;;;;5013041;28;20187;-86
2021/03/31 11:55:30;;;;;;;5.83;2.30;;;23.70;99.90;;;;;;5019686;28;20222;-85
2021/03/31 11:57:55;;;;;;;3.47;1.97;;;23.70;99.90;;;;;;5011677;28;20183;-85
2021/03/31 12:00:21;;;;;;;1.50;1.27;;;23.60;99.90;;;;;;5007838;28;20663;-85
2021/03/31 12:02:55;;;;;;;2.60;1.87;;;23.80;99.90;;;;;;5012055;28;20274;-85
2021/03/31 12:05:20;;;;;;;2.07;1.87;;;23.80;99.90;;;;;;4994614;28;20211;-85
2021/03/31 12:07:46;;;;;;;2.13;1.90;;;23.90;99.90;;;;;;4998797;28;20242;-85
2021/03/31 12:10:13;;;;;;;2.10;1.90;;;23.50;99.90;;;;;;5014090;28;20866;-84
2021/03/31 12:12:41;;;;;;;3.90;2.17;;;23.40;99.90;;;;;;4990562;28;20193;-85
2021/03/31 12:15:12;;;;;;;3.17;1.70;;;23.80;99.90;;;;;;5020658;28;20182;-85
2021/03/31 12:17:39;;;;;;;2.77;1.73;;;24.00;99.90;;;;;;5000148;28;20190;-86
2021/03/31 12:20:07;;;;;;;2.47;2.27;;;24.20;99.90;;;;;;5000928;28;20203;-85
2021/03/31 12:22:32;;;;;;;1.83;1.13;;;24.40;99.90;;;;;;5011061;28;20187;-84
2021/03/31 12:24:58;;;;;;;1.87;1.57;;;24.40;99.90;;;;;;5012512;28;20183;-85
2021/03/31 12:27:24;;;;;;;1.90;1.73;;;23.70;99.90;;;;;;5012961;28;20555;-85
2021/03/31 12:29:50;;;;;;;2.27;1.90;;;23.70;99.90;;;;;;4994912;28;20256;-87
2021/03/31 12:32:17;;;;;;;2.33;1.77;;;24.00;99.90;;;;;;5011990;28;20187;-85
2021/03/31 12:34:44;;;;;;;4.67;1.27;;;24.20;99.90;;;;;;4991403;28;20192;-85
2021/03/31 12:37:10;;;;;;;4.93;1.87;;;24.10;99.90;;;;;;5010806;28;20186;-85
2021/03/31 12:40:32;;;;;;;2.97;1.80;;;24.10;99.90;;;;;;4993619;28;20211;-89
2021/03/31 12:42:58;;;;;;;1.67;1.53;;;23.90;99.90;;;;;;5006758;28;20175;-85
2021/03/31 12:45:23;;;;;;;2.73;2.03;;;24.00;99.90;;;;;;5005927;28;20191;-85
2021/03/31 12:47:49;;;;;;;3.37;2.77;;;24.30;99.90;;;;;;5007227;28;20587;-87
2021/03/31 12:50:18;;;;;;;5.10;2.53;;;24.50;99.90;;;;;;4987536;28;20569;-86
2021/03/31 12:52:59;;;;;;;3.80;2.43;;;24.60;99.90;;;;;;4988236;28;20230;-83
2021/03/31 12:55:30;;;;;;;4.83;1.73;;;24.70;99.90;;;;;;5001931;28;20232;-82
2021/03/31 12:58:02;;;;;;;1.93;1.13;;;24.80;99.90;;;;;;5007831;28;20182;-83
2021/03/31 13:00:28;;;;;;;1.73;1.63;;;24.80;99.90;;;;;;5016104;28;20199;-83
2021/03/31 13:02:53;;;;;;;2.67;2.47;;;24.90;99.90;;;;;;5011052;28;20183;-83
2021/03/31 13:05:19;;;;;;;7.13;1.53;;;24.90;99.90;;;;;;5012930;28;20237;-83
2021/03/31 13:07:45;;;;;;;4.17;2.03;;;25.00;99.90;;;;;;5009612;28;20890;-82
2021/03/31 13:10:11;;;;;;;10.67;2.40;;;25.00;99.90;;;;;;5001493;28;20743;-82
2021/03/31 13:15:58;;;;;;;8.27;2.00;;;25.10;99.90;;;;;;5019228;28;20260;-82
2021/03/31 13:31:28;;;;;;;3.13;2.10;;;25.30;99.90;;;;;;5012932;28;20257;-84
2021/03/31 13:34:01;;;;;;;2.50;2.17;;;25.40;99.90;;;;;;4994292;28;20729;-81
2021/03/31 13:36:47;;;;;;;4.20;3.00;;;25.40;99.90;;;;;;5008058;28;20647;-82